Time;durP1;ratioP1;P1;durP2;ratioP2;P2;SDS_P1;SDS_P2;PMS_P1;PMS_P2;Temp;Humidity;BMP_temperature;BMP_pressure;BME280_temperature;BME280_humidity;BME280_pressure;Samples;Min_cycle;Max_cycle;Signal;HPM_P1;HPM_P2
2021/09/04 00:01:38;;;;;;;;;24.00;21.00;;;;;22.66;58.40;101162.97;5096851;27;45825;-56
2021/09/04 00:04:04;;;;;;;;;22.25;21.25;;;;;22.63;57.66;101165.84;5098501;27;45691;-56
2021/09/04 00:06:29;;;;;;;;;24.25;20.75;;;;;22.60;57.43;101166.03;5098153;27;45679;-56
2021/09/04 00:08:54;;;;;;;;;24.25;21.25;;;;;22.58;57.40;101175.06;5098508;27;45489;-56
2021/09/04 00:11:22;;;;;;;;;27.75;26.25;;;;;22.54;57.72;101166.47;5098471;27;45299;-57
2021/09/04 00:13:48;;;;;;;;;47.00;39.25;;;;;22.51;57.00;101166.69;5098246;27;46398;-57
2021/09/04 00:16:13;;;;;;;;;49.50;40.00;;;;;22.47;58.02;101159.94;5097712;27;45452;-57
2021/09/04 00:18:39;;;;;;;;;56.50;43.25;;;;;22.41;58.03;101165.63;5098899;27;45621;-58
2021/09/04 00:21:04;;;;;;;;;48.00;37.75;;;;;22.38;57.95;101172.00;5098471;27;45299;-58
2021/09/04 00:23:30;;;;;;;;;33.25;28.75;;;;;22.35;58.45;101177.53;5098340;27;45423;-58
2021/09/04 00:25:55;;;;;;;;;27.75;25.25;;;;;22.30;58.32;101165.56;5080042;27;45428;-57
2021/09/04 00:28:20;;;;;;;;;24.00;22.00;;;;;22.28;58.37;101170.13;5098303;27;45671;-58
2021/09/04 00:30:47;;;;;;;;;24.00;19.75;;;;;22.25;58.46;101171.19;5098254;27;45480;-57
2021/09/04 00:33:12;;;;;;;;;18.50;18.00;;;;;22.25;58.58;101168.53;5099213;27;45450;-57
2021/09/04 00:35:38;;;;;;;;;18.25;17.25;;;;;22.18;58.37;101156.66;5101892;27;45366;-57
2021/09/04 00:38:03;;;;;;;;;23.75;18.50;;;;;22.15;58.24;101162.16;5101918;27;45402;-55
2021/09/04 00:40:29;;;;;;;;;21.75;15.75;;;;;22.10;58.55;101154.56;5101567;27;45379;-56
2021/09/04 00:42:54;;;;;;;;;23.25;18.25;;;;;22.09;58.07;101158.16;5102382;27;45410;-56
2021/09/04 00:45:19;;;;;;;;;16.75;16.75;;;;;22.06;58.75;101153.06;5102523;27;45471;-57
2021/09/04 00:48:03;;;;;;;;;17.00;15.75;;;;;22.03;58.94;101149.78;5102869;27;45586;-56
2021/09/04 00:50:31;;;;;;;;;20.00;17.25;;;;;22.01;59.17;101147.19;5100847;27;45476;-56
2021/09/04 00:52:57;;;;;;;;;18.75;17.50;;;;;21.97;60.06;101147.53;5101948;27;46362;-56
2021/09/04 00:55:23;;;;;;;;;24.00;19.75;;;;;21.93;59.48;101146.88;5084057;27;45299;-57
2021/09/04 00:57:49;;;;;;;;;17.25;16.25;;;;;21.86;59.16;101140.34;5102218;27;45232;-58
2021/09/04 01:00:15;;;;;;;;;20.25;15.75;;;;;21.87;59.54;101147.31;5102438;27;45233;-57
2021/09/04 01:02:41;;;;;;;;;19.25;17.25;;;;;21.85;59.45;101150.06;5102010;27;47516;-57
2021/09/04 01:05:07;;;;;;;;;16.00;15.75;;;;;21.85;59.31;101146.56;5083940;27;45336;-57
2021/09/04 01:07:34;;;;;;;;;19.75;17.75;;;;;21.83;59.28;101145.84;5099233;27;45380;-57
2021/09/04 01:10:03;;;;;;;;;18.25;18.25;;;;;21.81;59.38;101145.06;5102425;27;45375;-58
2021/09/04 01:12:28;;;;;;;;;21.75;19.25;;;;;21.83;59.45;101151.13;5101883;27;45611;-57
2021/09/04 01:14:54;;;;;;;;;17.00;15.50;;;;;21.82;59.56;101142.34;5102157;27;45251;-57
2021/09/04 01:17:20;;;;;;;;;24.00;18.00;;;;;21.83;59.34;101145.84;5102471;27;45315;-56
2021/09/04 01:19:45;;;;;;;;;22.75;18.25;;;;;21.83;59.21;101145.84;5073385;27;45330;-57
2021/09/04 01:22:11;;;;;;;;;20.25;19.00;;;;;21.84;59.18;101142.25;5102930;27;45602;-56
2021/09/04 01:24:36;;;;;;;;;15.75;15.75;;;;;21.84;59.10;101147.53;5102552;27;45360;-57
2021/09/04 01:27:01;;;;;;;;;22.00;17.50;;;;;21.86;59.00;101145.63;5102494;27;45414;-57
2021/09/04 01:29:27;;;;;;;;;16.75;16.25;;;;;21.80;59.11;101138.94;5102431;27;45304;-57
2021/09/04 01:31:52;;;;;;;;;17.75;16.50;;;;;21.76;58.81;101145.38;5102479;27;45373;-57
2021/09/04 01:34:18;;;;;;;;;26.50;16.75;;;;;21.71;58.16;101136.91;5102479;27;45333;-58
2021/09/04 01:36:43;;;;;;;;;21.25;16.75;;;;;21.67;58.79;101135.44;5102464;27;45377;-58
2021/09/04 01:39:09;;;;;;;;;22.25;18.25;;;;;21.60;58.44;101133.28;5102428;27;45268;-58
2021/09/04 01:41:37;;;;;;;;;17.25;16.25;;;;;21.55;58.91;101136.25;5102096;27;46277;-58
2021/09/04 01:44:04;;;;;;;;;16.25;14.25;;;;;21.56;58.86;101140.59;5089818;27;45731;-57
2021/09/04 01:46:30;;;;;;;;;23.00;18.00;;;;;21.55;59.13;101139.75;5102266;27;45330;-57
2021/09/04 01:48:57;;;;;;;;;15.25;15.25;;;;;21.52;59.24;101134.66;5102349;27;45220;-57
2021/09/04 01:51:23;;;;;;;;;20.25;18.75;;;;;21.51;59.16;101142.69;5101791;27;45437;-56
2021/09/04 01:53:48;;;;;;;;;20.50;16.50;;;;;21.49;59.33;101142.81;5102150;27;45356;-56
2021/09/04 01:56:13;;;;;;;;;18.25;17.75;;;;;21.50;58.98;101141.84;5102136;27;45244;-56
2021/09/04 01:58:39;;;;;;;;;19.25;19.25;;;;;21.50;59.34;101139.22;5101970;27;45389;-56
2021/09/04 02:01:05;;;;;;;;;18.50;18.50;;;;;21.52;59.27;101144.41;5101805;27;46301;-56
2021/09/04 02:03:31;;;;;;;;;17.50;15.75;;;;;21.52;59.10;101139.09;5102219;27;45929;-56
2021/09/04 02:05:56;;;;;;;;;22.25;16.75;;;;;21.52;59.11;101132.03;5101623;27;45489;-56
2021/09/04 02:08:21;;;;;;;;;19.75;17.50;;;;;21.53;59.32;101136.34;5101753;27;45282;-57
2021/09/04 02:10:47;;;;;;;;;18.75;16.25;;;;;21.51;59.12;101135.63;5101646;27;45466;-58
2021/09/04 02:13:12;;;;;;;;;19.00;17.25;;;;;21.49;60.04;101134.88;5101484;27;45330;-57
2021/09/04 02:15:38;;;;;;;;;22.25;19.00;;;;;21.45;59.91;101129.91;5102020;27;45568;-57
2021/09/04 02:18:03;;;;;;;;;19.50;15.75;;;;;21.39;60.42;101139.06;5101890;27;45295;-57
2021/09/04 02:20:29;;;;;;;;;20.75;17.25;;;;;21.33;60.49;101136.84;5102106;27;45556;-58
2021/09/04 02:22:54;;;;;;;;;20.75;18.75;;;;;21.31;60.48;101140.53;5101415;27;45271;-58
2021/09/04 02:25:19;;;;;;;;;16.00;15.50;;;;;21.28;60.30;101132.81;5101844;27;45279;-58
2021/09/04 02:27:45;;;;;;;;;21.50;20.50;;;;;21.23;60.57;101128.66;5101317;27;45294;-56
2021/09/04 02:30:13;;;;;;;;;21.50;20.50;;;;;21.21;60.66;101121.75;5101350;27;46315;-58
2021/09/04 02:32:38;;;;;;;;;18.50;15.00;;;;;21.18;60.66;101121.94;5101560;27;45468;-57
2021/09/04 02:35:05;;;;;;;;;20.75;19.00;;;;;21.15;60.41;101127.44;5101583;27;45309;-58
2021/09/04 02:37:31;;;;;;;;;19.00;15.00;;;;;21.12;61.08;101133.78;5101321;27;45460;-58
2021/09/04 02:39:56;;;;;;;;;17.00;16.25;;;;;21.07;60.50;101125.31;5101447;27;45593;-58
2021/09/04 02:42:22;;;;;;;;;18.75;17.50;;;;;21.06;60.73;101128.91;5088634;27;45290;-57
2021/09/04 02:44:47;;;;;;;;;19.50;17.50;;;;;21.02;60.34;101134.47;5101441;27;45409;-57
2021/09/04 02:47:12;;;;;;;;;24.50;19.75;;;;;20.98;60.41;101122.41;5101446;27;45508;-57
2021/09/04 02:49:38;;;;;;;;;26.75;20.75;;;;;20.96;60.72;101133.91;5100702;27;46202;-56
2021/09/04 02:52:03;;;;;;;;;20.00;20.00;;;;;20.94;61.11;101127.88;5101137;27;45250;-56
2021/09/04 02:54:28;;;;;;;;;18.25;18.00;;;;;20.92;61.20;101127.13;5101308;27;45354;-57
2021/09/04 02:56:54;;;;;;;;;20.25;18.50;;;;;20.96;61.21;101133.06;5100276;27;45596;-57
2021/09/04 02:59:19;;;;;;;;;21.50;18.75;;;;;20.98;61.14;101130.31;5082301;27;46818;-57
2021/09/04 03:01:45;;;;;;;;;19.50;17.25;;;;;21.00;61.17;101131.06;5101307;27;45200;-57
2021/09/04 03:04:10;;;;;;;;;20.50;20.50;;;;;20.99;61.36;101127.56;5100840;27;45479;-57
2021/09/04 03:06:36;;;;;;;;;19.25;18.50;;;;;21.01;61.61;101130.13;5100611;27;45522;-58
2021/09/04 03:09:01;;;;;;;;;18.50;16.50;;;;;21.04;61.02;101130.78;5100583;27;46920;-58
2021/09/04 03:11:27;;;;;;;;;26.50;21.25;;;;;21.07;61.21;101129.75;5080878;27;45435;-57
2021/09/04 03:13:52;;;;;;;;;22.75;19.75;;;;;21.08;61.15;101128.78;5100980;27;45345;-59
2021/09/04 03:16:18;;;;;;;;;19.75;18.00;;;;;21.09;61.01;101123.41;5100681;27;45586;-58
2021/09/04 03:18:44;;;;;;;;;20.50;20.50;;;;;21.10;60.83;101127.75;5100683;27;46874;-58
2021/09/04 03:21:10;;;;;;;;;23.75;20.25;;;;;21.09;61.34;101123.41;5100860;27;45506;-57
2021/09/04 03:23:35;;;;;;;;;17.50;16.25;;;;;21.09;61.22;101133.97;5100949;27;45330;-58
2021/09/04 03:26:00;;;;;;;;;23.00;20.50;;;;;21.08;61.29;101124.34;5081848;27;45256;-58
2021/09/04 03:28:26;;;;;;;;;25.00;21.00;;;;;21.08;61.01;101126.16;5100431;27;45284;-58
2021/09/04 03:30:51;;;;;;;;;22.75;21.25;;;;;21.08;61.09;101126.16;5100648;27;45234;-58
2021/09/04 03:33:17;;;;;;;;;23.00;19.50;;;;;21.07;61.31;101122.66;5100889;27;45455;-57
2021/09/04 03:35:42;;;;;;;;;25.00;21.50;;;;;21.06;60.97;101120.13;5100299;27;45205;-57
2021/09/04 03:38:07;;;;;;;;;26.50;23.25;;;;;21.04;61.41;101120.22;5100523;27;47458;-57
2021/09/04 03:40:33;;;;;;;;;23.00;21.50;;;;;21.08;61.33;101126.16;5100466;27;45390;-58
2021/09/04 03:42:58;;;;;;;;;27.75;25.00;;;;;21.08;61.44;101124.34;5100348;27;45353;-57
2021/09/04 03:45:23;;;;;;;;;22.50;20.25;;;;;21.05;61.61;101121.91;5100353;27;45247;-58
2021/09/04 03:47:49;;;;;;;;;23.00;20.00;;;;;21.10;61.08;101132.19;5100348;27;46453;-58
2021/09/04 03:50:14;;;;;;;;;25.50;21.25;;;;;21.10;61.68;101132.19;5100360;27;45204;-58
2021/09/04 03:52:40;;;;;;;;;20.50;19.50;;;;;21.10;61.57;101126.91;5100390;27;45544;-58
2021/09/04 03:55:06;;;;;;;;;26.75;20.25;;;;;21.10;61.86;101126.91;5100330;27;45546;-58
2021/09/04 03:57:31;;;;;;;;;24.75;22.50;;;;;21.11;61.70;101123.31;5100069;27;45403;-58
2021/09/04 03:59:56;;;;;;;;;24.75;21.50;;;;;21.12;61.66;101122.34;5100005;27;45398;-58
2021/09/04 04:02:22;;;;;;;;;25.25;22.00;;;;;21.10;61.50;101119.81;5100284;27;45428;-58
2021/09/04 04:04:47;;;;;;;;;21.00;20.50;;;;;21.11;61.93;101121.50;5100111;27;45298;-58
2021/09/04 04:07:13;;;;;;;;;21.50;20.75;;;;;21.10;61.34;101113.69;5087024;27;46079;-58
2021/09/04 04:09:38;;;;;;;;;24.00;22.50;;;;;21.07;61.82;101116.53;5103066;27;45366;-58
2021/09/04 04:12:04;;;;;;;;;23.50;21.75;;;;;21.04;62.03;101114.09;5103840;27;45382;-58
2021/09/04 04:14:32;;;;;;;;;26.50;22.75;;;;;21.01;62.02;101109.81;5103399;27;45518;-57
2021/09/04 04:16:57;;;;;;;;;23.75;19.25;;;;;20.98;62.02;101106.53;5103845;27;45545;-58
2021/09/04 04:19:23;;;;;;;;;26.50;21.75;;;;;20.95;61.99;101104.94;5103472;27;45265;-58
2021/09/04 04:21:48;;;;;;;;;25.50;23.00;;;;;20.97;62.09;101108.34;5085974;27;45669;-58
2021/09/04 04:24:13;;;;;;;;;24.50;22.75;;;;;20.98;61.95;101114.47;5103204;27;45490;-58
2021/09/04 04:26:39;;;;;;;;;27.00;23.25;;;;;20.95;62.94;101113.72;5081644;28;48213;-57
2021/09/04 04:29:04;;;;;;;;;23.25;20.25;;;;;20.94;62.80;101113.81;5101395;27;45247;-56
2021/09/04 04:31:30;;;;;;;;;22.25;20.75;;;;;20.88;62.86;101107.16;5103786;27;45485;-58
2021/09/04 04:33:55;;;;;;;;;23.75;22.25;;;;;20.87;63.46;101110.75;5103356;27;45395;-58
2021/09/04 04:36:21;;;;;;;;;24.00;21.50;;;;;20.84;63.86;101118.03;5103041;27;46130;-58
2021/09/04 04:38:46;;;;;;;;;21.00;20.75;;;;;20.83;63.35;101117.19;5103214;27;45424;-58
2021/09/04 04:41:11;;;;;;;;;21.25;21.25;;;;;20.83;63.38;101114.53;5103615;27;45398;-58
2021/09/04 04:43:37;;;;;;;;;24.50;22.75;;;;;20.84;63.42;101113.59;5102807;27;45385;-57
2021/09/04 04:46:02;;;;;;;;;27.25;24.25;;;;;20.84;63.64;101113.59;5103265;27;46166;-57
2021/09/04 04:48:27;;;;;;;;;31.25;22.25;;;;;20.84;63.80;101110.94;5103053;27;45350;-57
2021/09/04 04:50:53;;;;;;;;;26.25;23.50;;;;;20.84;63.65;101110.94;5103167;27;45453;-57
2021/09/04 04:53:18;;;;;;;;;29.00;22.50;;;;;20.84;63.86;101110.94;5102929;27;45306;-57
2021/09/04 04:55:44;;;;;;;;;25.50;19.25;;;;;20.86;63.84;101114.34;5103211;27;45436;-58
2021/09/04 04:58:09;;;;;;;;;25.25;23.00;;;;;20.84;63.88;101112.75;5102514;27;45294;-56
2021/09/04 05:00:34;;;;;;;;;23.00;22.25;;;;;20.83;63.81;101109.25;5103294;27;45803;-56
2021/09/04 05:03:00;;;;;;;;;26.00;21.50;;;;;20.85;64.19;101115.28;5102766;27;45264;-62
2021/09/04 05:05:25;;;;;;;;;27.25;25.25;;;;;20.88;63.79;101114.22;5102892;27;45492;-56
2021/09/04 05:07:53;;;;;;;;;26.00;23.50;;;;;20.88;64.11;101112.44;5102310;27;45448;-56
2021/09/04 05:10:19;;;;;;;;;22.75;20.50;;;;;20.89;63.96;101116.78;5103180;27;45253;-57
2021/09/04 05:12:44;;;;;;;;;26.00;24.25;;;;;20.89;64.34;101122.06;5102418;27;45381;-57
2021/09/04 05:15:10;;;;;;;;;22.00;20.25;;;;;20.89;64.13;101115.94;5102825;27;46353;-57
2021/09/04 05:17:35;;;;;;;;;28.25;24.00;;;;;20.90;63.99;101129.03;5102594;27;45328;-55
2021/09/04 05:20:00;;;;;;;;;26.25;23.50;;;;;20.92;64.47;101123.66;5102248;27;45234;-57
2021/09/04 05:22:26;;;;;;;;;23.00;21.75;;;;;20.95;64.59;101132.22;5102787;27;45229;-57
2021/09/04 05:24:51;;;;;;;;;18.50;15.50;;;;;20.96;64.30;101131.28;5102575;27;46180;-56
2021/09/04 05:27:16;;;;;;;;;27.50;22.25;;;;;20.98;64.11;101136.44;5102240;27;45329;-56
2021/09/04 05:29:42;;;;;;;;;23.75;20.50;;;;;20.97;64.35;101134.75;5102624;27;45349;-56
2021/09/04 05:32:07;;;;;;;;;28.50;24.25;;;;;21.00;64.20;101141.63;5102332;27;45423;-56
2021/09/04 05:34:32;;;;;;;;;27.00;22.25;;;;;21.00;64.02;101146.91;5102444;27;45381;-56
2021/09/04 05:36:59;;;;;;;;;23.75;22.25;;;;;21.00;64.54;101139.84;5102212;27;45461;-58
2021/09/04 05:39:25;;;;;;;;;24.25;23.25;;;;;20.99;64.90;101146.06;5102696;27;45492;-56
2021/09/04 05:41:50;;;;;;;;;14.25;11.25;;;;;20.94;64.14;101141.09;5102240;27;45435;-55
2021/09/04 05:44:16;;;;;;;;;24.00;22.75;;;;;20.94;65.33;101140.25;5102159;27;45389;-55
2021/09/04 05:46:41;;;;;;;;;27.50;23.50;;;;;20.92;64.82;101150.06;5100638;27;45357;-55
2021/09/04 05:49:06;;;;;;;;;23.00;22.25;;;;;20.90;65.37;101142.25;5101902;27;45624;-55
2021/09/04 05:51:32;;;;;;;;;27.00;22.75;;;;;20.91;65.10;101146.56;5101611;27;45488;-55
2021/09/04 05:53:57;;;;;;;;;31.75;25.25;;;;;20.93;65.00;101136.75;5101684;27;46582;-56
2021/09/04 05:56:22;;;;;;;;;31.00;26.25;;;;;20.96;65.90;101147.13;5101450;27;45369;-58
2021/09/04 05:58:48;;;;;;;;;24.00;23.50;;;;;20.93;65.33;101147.31;5101789;27;45272;-58
2021/09/04 06:01:13;;;;;;;;;27.75;22.00;;;;;20.91;66.64;101143.94;5101898;27;45370;-59
2021/09/04 06:03:38;;;;;;;;;27.75;24.25;;;;;20.87;65.71;101145.09;5102205;27;46306;-65
2021/09/04 06:06:04;;;;;;;;;32.50;28.50;;;;;20.90;65.50;101150.16;5101334;27;45453;-61
2021/09/04 06:08:29;;;;;;;;;32.00;27.00;;;;;20.94;66.31;101148.16;5101285;27;45409;-63
2021/09/04 06:10:54;;;;;;;;;26.25;21.00;;;;;20.97;65.51;101150.63;5099739;27;46030;-63
2021/09/04 06:13:20;;;;;;;;;24.00;22.25;;;;;20.96;66.00;101154.19;5100937;27;46603;-61
2021/09/04 06:15:45;;;;;;;;;26.75;22.25;;;;;20.99;65.93;101158.44;5101780;27;45276;-62
2021/09/04 06:18:12;;;;;;;;;28.00;21.75;;;;;21.01;65.73;101161.81;5101671;27;45213;-57
2021/09/04 06:20:37;;;;;;;;;23.25;21.25;;;;;21.03;66.33;101163.47;5101326;27;45548;-57
2021/09/04 06:23:03;;;;;;;;;27.75;22.75;;;;;21.04;65.74;101166.94;5101529;27;45615;-56
2021/09/04 06:25:28;;;;;;;;;30.25;22.50;;;;;21.07;66.03;101161.47;5101406;27;45397;-57
2021/09/04 06:27:54;;;;;;;;;26.25;25.00;;;;;21.08;66.35;101161.34;5101345;27;45458;-56
2021/09/04 06:30:19;;;;;;;;;35.00;28.75;;;;;21.09;66.06;101167.50;5100819;27;45403;-58
2021/09/04 06:32:44;;;;;;;;;35.75;30.25;;;;;21.05;65.81;101156.28;5101193;27;45328;-58
2021/09/04 06:35:10;;;;;;;;;25.00;22.50;;;;;21.05;66.23;101168.63;5101463;27;45373;-58
2021/09/04 06:37:35;;;;;;;;;29.25;26.00;;;;;21.04;67.08;101165.16;5101213;27;45426;-58
2021/09/04 06:40:01;;;;;;;;;28.00;27.75;;;;;21.07;67.06;101172.03;5101354;27;45322;-58
2021/09/04 06:42:26;;;;;;;;;28.50;26.50;;;;;21.12;67.51;101165.50;5101003;27;45548;-57
2021/09/04 06:44:52;;;;;;;;;31.75;26.50;;;;;21.16;67.67;101172.25;5100997;27;45185;-56
2021/09/04 06:47:17;;;;;;;;;34.75;29.50;;;;;21.17;67.94;101173.13;5101585;27;45327;-57
2021/09/04 06:49:42;;;;;;;;;32.00;27.75;;;;;21.19;67.77;101176.50;5101205;27;45198;-57
2021/09/04 06:52:08;;;;;;;;;32.00;27.75;;;;;21.24;68.39;101175.31;5101154;27;45292;-57
2021/09/04 06:54:33;;;;;;;;;30.25;24.25;;;;;21.29;68.66;101175.00;5101041;27;45414;-57
2021/09/04 06:57:00;;;;;;;;;35.75;29.00;;;;;21.28;68.55;101180.41;5101135;27;45410;-58
2021/09/04 06:59:25;;;;;;;;;29.50;24.50;;;;;21.30;68.83;101176.69;5100818;27;45397;-57
2021/09/04 07:01:52;;;;;;;;;32.00;27.75;;;;;21.37;68.65;101163.91;5100965;27;45676;-57
2021/09/04 07:04:17;;;;;;;;;32.75;25.25;;;;;21.44;68.44;101166.06;5100766;27;45709;-57
2021/09/04 07:06:43;;;;;;;;;31.25;28.00;;;;;21.55;68.65;101163.53;5100479;27;45364;-58
2021/09/04 07:09:08;;;;;;;;;35.75;29.75;;;;;21.65;68.72;101163.78;5101029;27;45371;-57
2021/09/04 07:11:33;;;;;;;;;36.25;30.75;;;;;21.69;68.59;101164.44;5100818;27;45421;-56
2021/09/04 07:13:59;;;;;;;;;38.00;33.25;;;;;21.66;68.87;101160.19;5100570;27;45368;-57
2021/09/04 07:16:24;;;;;;;;;32.00;27.25;;;;;21.68;69.37;101168.03;5100646;27;45390;-57
2021/09/04 07:18:49;;;;;;;;;32.50;27.50;;;;;21.69;70.07;101167.06;5100707;27;45497;-60
2021/09/04 07:21:15;;;;;;;;;37.75;32.75;;;;;21.70;69.62;101160.84;5100611;27;46093;-59
2021/09/04 07:23:40;;;;;;;;;38.00;31.50;;;;;21.70;70.62;101171.41;5100267;27;45297;-59
2021/09/04 07:26:06;;;;;;;;;41.25;33.50;;;;;21.68;75.51;101168.88;5099870;27;45283;-58
2021/09/04 07:28:31;;;;;;;;;41.00;34.25;;;;;21.58;75.97;101172.22;5099029;27;45338;-60
2021/09/04 07:30:59;;;;;;;;;42.50;35.75;;;;;21.48;76.03;101167.56;5099774;27;46400;-60
2021/09/04 07:33:24;;;;;;;;;41.75;34.75;;;;;21.38;81.60;101166.47;5100370;27;45772;-60
2021/09/04 07:35:50;;;;;;;;;42.00;34.50;;;;;21.35;80.90;101166.66;5100408;27;45342;-60
2021/09/04 07:38:15;;;;;;;;;42.75;33.75;;;;;21.38;76.56;101171.75;5100026;27;45277;-57
2021/09/04 07:40:40;;;;;;;;;46.25;34.25;;;;;21.42;76.77;101170.59;5088118;27;45458;-57
2021/09/04 07:43:08;;;;;;;;;40.75;34.25;;;;;21.46;77.01;101173.91;5099604;27;45339;-59
2021/09/04 07:45:35;;;;;;;;;43.50;36.00;;;;;21.54;77.48;101174.22;5100423;27;45442;-60
2021/09/04 07:48:00;;;;;;;;;42.25;36.00;;;;;21.66;77.11;101181.38;5100235;27;45484;-59
2021/09/04 07:50:26;;;;;;;;;43.75;33.25;;;;;21.73;77.73;101182.63;5100218;27;46450;-56
2021/09/04 07:52:51;;;;;;;;;46.75;36.75;;;;;21.78;77.04;101190.25;5100087;27;45366;-56
2021/09/04 07:55:17;;;;;;;;;48.75;37.50;;;;;21.80;76.86;101180.41;5100317;27;45279;-56
2021/09/04 07:57:43;;;;;;;;;47.50;37.75;;;;;21.94;76.39;101174.19;5099795;27;45399;-59
2021/09/04 08:00:09;;;;;;;;;44.25;35.00;;;;;22.08;76.39;101179.44;5099977;27;45429;-56
2021/09/04 08:02:34;;;;;;;;;47.50;37.25;;;;;22.17;76.28;101179.63;5098744;27;45265;-56
2021/09/04 08:04:59;;;;;;;;;49.75;39.25;;;;;22.33;75.69;101178.59;5099437;27;45263;-57
2021/09/04 08:07:25;;;;;;;;;40.75;35.50;;;;;22.48;75.58;101172.22;5099466;27;45415;-57
2021/09/04 08:09:50;;;;;;;;;41.50;37.25;;;;;22.57;76.11;101174.22;5100160;27;46106;-57
2021/09/04 08:12:15;;;;;;;;;47.75;38.50;;;;;22.70;76.13;101184.78;5081626;27;45260;-57
2021/09/04 08:14:41;;;;;;;;;47.25;37.00;;;;;22.75;75.27;101178.19;5099359;27;46478;-58
2021/09/04 08:17:06;;;;;;;;;49.50;36.75;;;;;22.91;74.96;101188.59;5099404;27;45470;-57
2021/09/04 08:19:31;;;;;;;;;48.00;39.25;;;;;23.02;73.98;101186.00;5098726;27;47100;-57
2021/09/04 08:21:57;;;;;;;;;50.00;39.00;;;;;23.10;74.95;101188.09;5099419;27;45389;-57
2021/09/04 08:24:22;;;;;;;;;47.75;36.50;;;;;23.22;73.75;101189.00;5099095;27;46040;-57
2021/09/04 08:26:47;;;;;;;;;47.25;39.00;;;;;23.28;73.98;101181.47;5099055;27;45728;-57
2021/09/04 08:29:13;;;;;;;;;41.25;34.50;;;;;23.33;73.40;101183.75;5098473;27;46238;-56
2021/09/04 08:31:38;;;;;;;;;46.50;37.00;;;;;23.40;73.46;101190.28;5099699;27;45266;-56
2021/09/04 08:34:03;;;;;;;;;48.50;37.25;;;;;23.50;72.79;101196.63;5080383;27;45468;-57
2021/09/04 08:36:29;;;;;;;;;48.25;37.50;;;;;23.59;72.97;101195.13;5099141;27;45432;-57
2021/09/04 08:38:54;;;;;;;;;47.25;37.25;;;;;23.65;72.63;101199.97;5099346;27;45308;-57
2021/09/04 08:41:20;;;;;;;;;49.00;38.25;;;;;23.82;72.21;101206.66;5099314;27;45311;-57
2021/09/04 08:43:46;;;;;;;;;37.75;33.50;;;;;23.97;72.13;101202.84;5099507;27;45341;-56
2021/09/04 08:46:15;;;;;;;;;50.25;37.50;;;;;24.19;71.96;101202.88;5099365;27;45439;-56
2021/09/04 08:48:42;;;;;;;;;47.25;39.00;;;;;24.35;69.69;101207.03;5099250;27;45309;-54
2021/09/04 08:51:08;;;;;;;;;51.00;39.25;;;;;24.44;69.80;101211.66;5098820;27;45721;-56
2021/09/04 08:53:33;;;;;;;;;50.50;39.25;;;;;24.56;70.16;101216.84;5081461;27;45307;-58
2021/09/04 08:55:59;;;;;;;;;46.50;38.75;;;;;24.66;69.60;101214.31;5102885;27;45384;-57
2021/09/04 08:58:24;;;;;;;;;43.25;35.50;;;;;24.70;69.53;101214.91;5072136;27;47032;-57
2021/09/04 09:00:50;;;;;;;;;49.25;38.00;;;;;24.76;68.62;101217.06;5102901;27;45370;-57
2021/09/04 09:03:21;;;;;;;;;44.75;36.50;;;;;24.73;68.83;101222.63;5102725;27;45358;-57
2021/09/04 09:05:47;;;;;;;;;42.00;33.25;;;;;24.67;67.67;101218.66;5102388;27;45384;-56
2021/09/04 09:08:17;;;;;;;;;39.25;34.75;;;;;24.63;68.75;101217.22;5102261;27;46045;-56
2021/09/04 09:10:42;;;;;;;;;41.00;33.25;;;;;24.65;68.71;101223.25;5102754;27;45230;-57
2021/09/04 09:13:08;;;;;;;;;40.50;33.25;;;;;24.69;69.12;101218.53;5102444;27;45360;-58
2021/09/04 09:15:37;;;;;;;;;41.75;33.25;;;;;24.81;69.49;101222.84;5078760;27;45486;-57
2021/09/04 09:18:12;;;;;;;;;45.00;33.50;;;;;24.89;69.15;101225.78;5102557;27;45658;-56
2021/09/04 09:20:43;;;;;;;;;40.75;35.00;;;;;25.00;69.14;101224.94;5102068;27;45282;-60
2021/09/04 09:23:12;;;;;;;;;37.75;32.25;;;;;25.06;68.88;101227.97;5102522;27;45383;-57
2021/09/04 09:25:42;;;;;;;;;38.75;30.00;;;;;25.13;67.66;101213.19;5102216;27;45390;-57
2021/09/04 09:28:12;;;;;;;;;35.50;32.25;;;;;25.27;67.73;101228.03;5101913;27;46653;-57
2021/09/04 09:30:43;;;;;;;;;38.50;32.00;;;;;25.36;67.07;101227.28;5083602;27;45606;-63
2021/09/04 09:33:11;;;;;;;;;37.75;33.25;;;;;25.55;66.45;101228.41;5102745;27;45314;-57
2021/09/04 09:35:39;;;;;;;;;42.25;35.25;;;;;25.61;66.92;101225.25;5101424;27;45480;-57
2021/09/04 09:38:08;;;;;;;;;42.50;32.75;;;;;25.76;66.84;101224.84;5101124;27;45625;-57
2021/09/04 09:40:34;;;;;;;;;38.00;32.50;;;;;25.90;65.87;101223.69;5099393;27;45355;-57
2021/09/04 09:43:00;;;;;;;;;36.50;33.00;;;;;25.99;65.72;101222.91;5099358;27;45429;-56
2021/09/04 09:46:07;;;;;;;;;41.75;32.00;;;;;26.11;63.85;101221.03;5099679;27;45308;-56
2021/09/04 09:48:35;;;;;;;;;37.50;32.50;;;;;26.18;64.28;101221.34;5035883;28;45883;-58
2021/09/04 09:51:04;;;;;;;;;35.00;31.50;;;;;26.36;63.80;101219.81;5037476;28;45517;-59
2021/09/04 09:53:29;;;;;;;;;37.50;30.75;;;;;26.51;63.54;101212.31;5071353;27;45466;-58
2021/09/04 09:55:57;;;;;;;;;35.00;31.50;;;;;26.68;62.99;101217.00;5101890;27;45236;-59
2021/09/04 09:58:26;;;;;;;;;34.75;29.75;;;;;26.75;62.08;101212.81;5101442;27;46276;-57
2021/09/04 10:00:55;;;;;;;;;31.25;28.00;;;;;26.72;61.12;101214.91;5101973;27;45303;-57
2021/09/04 10:03:23;;;;;;;;;35.00;30.75;;;;;26.60;61.61;101216.81;5090163;27;45407;-57
2021/09/04 10:05:49;;;;;;;;;32.25;29.75;;;;;26.54;61.40;101210.22;5101309;27;45327;-58
2021/09/04 10:08:23;;;;;;;;;32.50;30.00;;;;;26.48;61.47;101208.09;5101401;27;45305;-56
2021/09/04 10:10:49;;;;;;;;;30.00;27.75;;;;;26.41;60.48;101214.06;5101717;27;45405;-56
2021/09/04 10:13:15;;;;;;;;;35.75;30.50;;;;;26.38;61.63;101205.38;5101656;27;46200;-57
2021/09/04 10:15:46;;;;;;;;;34.75;31.75;;;;;26.41;61.14;101200.75;5101666;27;45302;-57
2021/09/04 10:18:14;;;;;;;;;33.00;29.75;;;;;26.41;61.17;101206.91;5068101;28;47686;-57
2021/09/04 10:20:40;;;;;;;;;28.25;26.50;;;;;26.41;60.22;101208.72;5097447;27;45303;-57
2021/09/04 10:23:30;;;;;;;;;26.25;26.00;;;;;26.45;60.63;101210.19;5101648;27;45719;-56
2021/09/04 10:25:55;;;;;;;;;32.25;28.00;;;;;26.46;60.29;101206.53;5100872;27;45274;-57
2021/09/04 10:28:21;;;;;;;;;32.50;29.00;;;;;26.51;60.45;101201.63;5100653;27;46353;-57
2021/09/04 10:30:53;;;;;;;;;29.50;26.25;;;;;26.59;59.70;101204.47;5101481;27;45224;-56
2021/09/04 10:33:24;;;;;;;;;32.00;28.75;;;;;26.66;60.20;101200.31;5101539;27;45192;-56
2021/09/04 10:35:57;;;;;;;;;30.75;28.25;;;;;26.78;59.54;101201.88;5100951;27;45303;-56
2021/09/04 10:38:26;;;;;;;;;32.00;28.00;;;;;26.83;59.17;101206.78;5101051;27;46607;-56
2021/09/04 10:41:12;;;;;;;;;35.25;29.50;;;;;26.87;58.32;101203.75;5100885;27;45273;-57
2021/09/04 10:43:43;;;;;;;;;38.00;30.00;;;;;26.86;59.02;101206.56;5100429;27;59482;-55
2021/09/04 10:46:10;;;;;;;;;40.75;32.25;;;;;26.89;58.67;101209.78;5101110;27;45643;-55
2021/09/04 10:48:37;;;;;;;;;34.75;31.25;;;;;26.96;58.75;101202.91;5099658;27;46650;-57
2021/09/04 10:51:02;;;;;;;;;34.50;32.00;;;;;27.10;58.87;101203.53;5101214;27;45711;-57
2021/09/04 10:53:44;;;;;;;;;37.00;32.75;;;;;27.23;57.73;101206.78;5101111;27;45347;-56
2021/09/04 10:56:29;;;;;;;;;33.75;30.25;;;;;27.33;57.39;101204.97;5100671;27;45428;-56
2021/09/04 10:58:55;;;;;;;;;39.75;33.50;;;;;27.46;56.66;101204.72;5100565;27;45593;-56
2021/09/04 11:01:32;;;;;;;;;31.50;30.00;;;;;27.54;56.73;101196.84;5100472;27;45497;-56
2021/09/04 11:03:57;;;;;;;;;44.00;35.00;;;;;27.66;57.07;101206.44;5100840;27;45223;-57
2021/09/04 11:06:25;;;;;;;;;35.25;31.75;;;;;27.67;56.18;101197.44;5100092;27;45226;-56